Time;durP1;ratioP1;P1;durP2;ratioP2;P2;SDS_P1;SDS_P2;PMS_P1;PMS_P2;Temp;Humidity;BMP_temperature;BMP_pressure;BME280_temperature;BME280_humidity;BME280_pressure;Samples;Min_cycle;Max_cycle;Signal;HPM_P1;HPM_P2
2023/07/10 00:00:29;;;;;;;5.90;5.30;;;;;;;14.47;73.60;99297.09;137152;1277;22141;-82
2023/07/10 00:03:52;;;;;;;11.60;5.50;;;;;;;14.43;74.05;99296.90;137016;1277;22517;-82
2023/07/10 00:06:54;;;;;;;5.80;4.90;;;;;;;14.40;74.25;99295.45;136972;1277;22218;-82
2023/07/10 00:09:56;;;;;;;5.60;4.80;;;;;;;14.36;74.53;99295.79;137095;1277;22535;-86
2023/07/10 00:12:59;;;;;;;6.60;5.30;;;;;;;14.35;75.07;99295.25;137164;1277;22602;-83
2023/07/10 00:16:01;;;;;;;6.70;5.40;;;;;;;14.29;75.12;99297.34;136966;1277;22131;-82
2023/07/10 00:19:04;;;;;;;8.40;5.30;;;;;;;14.23;75.36;99300.63;137094;1277;22203;-83
2023/07/10 00:22:06;;;;;;;7.60;5.10;;;;;;;14.19;75.70;99301.84;137163;1276;22256;-83
2023/07/10 00:25:09;;;;;;;8.10;5.20;;;;;;;14.16;76.13;99302.70;136918;1277;23057;-83
2023/07/10 00:28:11;;;;;;;5.90;5.30;;;;;;;14.13;76.51;99309.16;137096;1277;22634;-83
2023/07/10 00:31:14;;;;;;;8.70;5.30;;;;;;;14.05;76.51;99314.55;137118;1277;22259;-82
2023/07/10 00:34:16;;;;;;;5.70;5.00;;;;;;;13.96;76.75;99318.17;136938;1277;22553;-83
2023/07/10 00:37:19;;;;;;;8.20;5.20;;;;;;;13.91;77.19;99312.55;137025;1277;22270;-84
2023/07/10 00:40:22;;;;;;;6.40;5.40;;;;;;;13.87;77.54;99310.93;137179;1277;22159;-83
2023/07/10 00:43:24;;;;;;;6.00;5.40;;;;;;;13.79;77.43;99308.25;137067;1277;22119;-83
2023/07/10 00:46:26;;;;;;;5.80;5.00;;;;;;;13.77;78.15;99306.84;137160;1277;22639;-84
2023/07/10 00:49:29;;;;;;;5.10;4.40;;;;;;;13.76;78.35;99302.80;137032;1277;22298;-83
2023/07/10 00:52:31;;;;;;;5.20;4.70;;;;;;;13.70;78.38;99296.81;137015;1277;22530;-85
2023/07/10 00:55:34;;;;;;;23.40;7.20;;;;;;;13.65;78.96;99298.70;137205;1277;22134;-82
2023/07/10 00:58:37;;;;;;;8.80;4.90;;;;;;;13.68;79.41;99300.65;137172;1277;22305;-83
2023/07/10 01:01:39;;;;;;;11.90;5.20;;;;;;;13.68;79.36;99298.38;137128;1270;22180;-82
2023/07/10 01:04:42;;;;;;;8.10;5.20;;;;;;;13.62;79.57;99296.42;137166;1277;22581;-82
2023/07/10 01:07:46;;;;;;;8.90;4.70;;;;;;;13.57;79.74;99290.26;136912;1277;22209;-82
2023/07/10 01:10:48;;;;;;;5.10;4.50;;;;;;;13.52;79.89;99290.23;137129;1277;22128;-81
2023/07/10 01:13:51;;;;;;;7.00;4.40;;;;;;;13.46;79.72;99294.55;137067;1277;22237;-82
2023/07/10 01:16:53;;;;;;;5.00;4.50;;;;;;;13.43;80.27;99293.65;137042;1277;22216;-82
2023/07/10 01:19:56;;;;;;;10.70;4.80;;;;;;;13.46;80.69;99294.91;137130;1277;22163;-82
2023/07/10 01:22:59;;;;;;;6.10;5.10;;;;;;;13.44;80.71;99300.30;137078;1277;22216;-82
2023/07/10 01:26:03;;;;;;;5.70;4.80;;;;;;;13.39;80.78;99298.70;137046;1277;22996;-82
2023/07/10 01:29:06;;;;;;;6.90;4.80;;;;;;;13.36;80.73;99299.20;137051;1277;22193;-81
2023/07/10 01:32:08;;;;;;;11.40;5.30;;;;;;;13.29;80.69;99296.52;137226;1277;22179;-81
2023/07/10 01:35:11;;;;;;;7.10;4.50;;;;;;;13.23;81.05;99299.62;137005;1277;22616;-83
2023/07/10 01:38:14;;;;;;;6.80;4.80;;;;;;;13.45;85.09;99291.22;137053;1277;22183;-82
2023/07/10 01:41:16;;;;;;;5.40;4.70;;;;;;;14.98;86.69;99278.26;136976;1277;22671;-82
2023/07/10 01:44:18;;;;;;;7.70;4.70;;;;;;;16.33;80.99;99270.08;136888;1277;22667;-82
2023/07/10 01:47:21;;;;;;;5.30;4.30;;;;;;;17.17;77.15;99264.48;137011;1277;22554;-82
2023/07/10 01:50:23;;;;;;;6.80;4.80;;;;;;;17.96;73.73;99265.04;136581;1273;197485;-82
2023/07/10 01:53:26;;;;;;;5.80;4.40;;;;;;;18.57;70.59;99266.42;136930;1277;22168;-82
2023/07/10 01:56:28;;;;;;;5.30;4.50;;;;;;;18.90;68.44;99264.55;137088;1253;23208;-82
2023/07/10 01:59:31;;;;;;;5.90;4.20;;;;;;;19.17;66.44;99265.23;137167;1277;22551;-81
2023/07/10 02:02:33;;;;;;;6.20;4.20;;;;;;;19.39;64.97;99261.52;137253;1277;22287;-82
2023/07/10 02:05:36;;;;;;;6.00;3.70;;;;;;;19.54;63.65;99257.20;137177;1277;22124;-83
2023/07/10 02:08:38;;;;;;;3.90;3.60;;;;;;;19.66;62.71;99264.58;137048;1277;22299;-82
2023/07/10 02:11:41;;;;;;;7.20;4.10;;;;;;;19.64;61.64;99267.09;137151;1277;22152;-83
2023/07/10 02:14:45;;;;;;;9.20;4.20;;;;;;;19.68;61.20;99264.90;137038;1277;22576;-83
2023/07/10 02:17:47;;;;;;;15.90;4.60;;;;;;;19.67;59.95;99265.10;137021;1270;22592;-82
2023/07/10 02:20:50;;;;;;;5.10;3.80;;;;;;;18.74;58.39;99266.33;137180;1277;22229;-81
2023/07/10 02:23:53;;;;;;;4.40;4.00;;;;;;;17.39;59.94;99266.25;137067;1277;22655;-83
2023/07/10 02:26:55;;;;;;;7.00;4.10;;;;;;;16.59;62.02;99267.85;137058;1277;22188;-83
2023/07/10 02:29:58;;;;;;;43.20;7.20;;;;;;;15.90;63.46;99267.58;136862;1277;22544;-83
2023/07/10 02:33:00;;;;;;;4.50;3.70;;;;;;;15.29;65.12;99263.23;137034;1277;22523;-82
2023/07/10 02:36:03;;;;;;;6.40;4.00;;;;;;;14.78;66.43;99263.02;137102;1277;22424;-83
2023/07/10 02:39:05;;;;;;;20.90;5.10;;;;;;;14.44;68.11;99262.57;137110;1277;22588;-82
2023/07/10 02:42:07;;;;;;;11.70;4.50;;;;;;;14.27;69.60;99258.81;137201;1277;22189;-84
2023/07/10 02:45:10;;;;;;;9.90;4.70;;;;;;;14.08;70.37;99257.34;137224;1277;23033;-82
2023/07/10 02:48:12;;;;;;;6.20;4.00;;;;;;;13.83;71.07;99261.40;137161;1277;22649;-82
2023/07/10 02:51:15;;;;;;;8.50;4.20;;;;;;;13.65;72.20;99260.93;137124;1277;22729;-81
2023/07/10 02:54:17;;;;;;;7.30;4.40;;;;;;;13.52;73.19;99259.80;137110;1277;22200;-82
2023/07/10 02:57:23;;;;;;;4.80;4.30;;;;;;;13.46;74.12;99260.63;137115;1277;22608;-81
2023/07/10 03:00:25;;;;;;;7.20;4.30;;;;;;;13.48;75.00;99265.71;137178;1277;22605;-81
2023/07/10 03:03:27;;;;;;;5.10;4.30;;;;;;;13.49;75.21;99265.73;137129;1277;22262;-82
2023/07/10 03:06:30;;;;;;;4.20;3.90;;;;;;;13.48;75.47;99265.20;137178;1273;22183;-81
2023/07/10 03:09:32;;;;;;;6.10;4.00;;;;;;;13.44;75.81;99270.58;137149;1277;22255;-81
2023/07/10 03:12:35;;;;;;;7.80;4.00;;;;;;;13.39;76.23;99271.25;137120;1277;22412;-81
2023/07/10 03:15:37;;;;;;;6.50;4.40;;;;;;;13.37;76.62;99276.48;137234;1277;22233;-81
2023/07/10 03:18:40;;;;;;;5.10;3.80;;;;;;;13.38;77.15;99273.16;137125;1277;22219;-81
2023/07/10 03:21:42;;;;;;;4.60;4.20;;;;;;;13.42;77.59;99275.11;137225;1270;22199;-80
2023/07/10 03:24:45;;;;;;;9.20;7.90;;;;;;;13.50;78.01;99279.71;137267;1277;22310;-81
2023/07/10 03:27:47;;;;;;;7.50;5.90;;;;;;;13.65;78.28;99280.87;137170;1277;22172;-81
2023/07/10 03:30:50;;;;;;;150.30;22.50;;;;;;;13.81;78.20;99276.59;137023;1277;22561;-78
2023/07/10 03:33:52;;;;;;;26.00;6.20;;;;;;;13.85;78.05;99278.01;137175;1277;22248;-81
2023/07/10 03:36:55;;;;;;;5.70;4.50;;;;;;;13.86;78.08;99280.83;137124;1277;22179;-81
2023/07/10 03:39:57;;;;;;;8.80;4.10;;;;;;;13.92;78.31;99283.52;136884;1277;24413;-80
2023/07/10 03:43:00;;;;;;;10.40;4.60;;;;;;;13.97;78.43;99285.29;137162;1277;22282;-80
2023/07/10 03:46:02;;;;;;;9.60;4.20;;;;;;;14.06;78.69;99286.90;137104;1277;22534;-81
2023/07/10 03:49:05;;;;;;;7.40;4.30;;;;;;;14.12;78.79;99288.85;136993;1277;22574;-80
2023/07/10 03:52:07;;;;;;;6.00;4.50;;;;;;;14.17;78.87;99289.58;137174;1277;22220;-80
2023/07/10 03:55:10;;;;;;;4.60;4.20;;;;;;;14.23;78.89;99288.04;137222;1277;22164;-80
2023/07/10 03:58:12;;;;;;;5.10;3.80;;;;;;;14.32;79.21;99287.02;137180;1277;22169;-80
2023/07/10 04:01:15;;;;;;;6.70;4.30;;;;;;;14.47;79.15;99285.00;137130;1277;22261;-81
2023/07/10 04:04:17;;;;;;;8.30;4.10;;;;;;;14.64;79.11;99293.27;137219;1277;22218;-80
2023/07/10 04:07:20;;;;;;;4.90;4.10;;;;;;;14.87;79.18;99290.73;137189;1277;22212;-81
2023/07/10 04:10:22;;;;;;;4.60;3.70;;;;;;;15.04;78.91;99288.66;137223;1262;22191;-80
2023/07/10 04:13:27;;;;;;;5.50;3.80;;;;;;;15.20;78.66;99282.36;137218;1277;22148;-80
2023/07/10 04:16:30;;;;;;;4.90;4.20;;;;;;;15.32;78.52;99277.80;137229;1277;22283;-80
2023/07/10 04:19:33;;;;;;;120.30;14.20;;;;;;;15.41;78.49;99273.92;137169;1277;22219;-80
2023/07/10 04:22:35;;;;;;;5.70;3.80;;;;;;;15.50;78.48;99270.77;137188;1277;22191;-80
2023/07/10 04:25:38;;;;;;;5.70;4.10;;;;;;;15.62;78.22;99270.45;137201;1277;22259;-80
2023/07/10 04:28:40;;;;;;;108.20;11.90;;;;;;;15.84;78.89;99272.16;137217;1276;22223;-80
2023/07/10 04:31:43;;;;;;;22.20;5.10;;;;;;;16.94;80.10;99268.16;137172;1277;22287;-80
2023/07/10 04:34:46;;;;;;;84.80;9.40;;;;;;;18.11;76.82;99266.62;137268;1277;21958;-80
2023/07/10 04:37:49;;;;;;;21.10;5.00;;;;;;;19.02;73.07;99268.09;137199;1277;22189;-81
2023/07/10 04:40:51;;;;;;;16.00;4.60;;;;;;;19.60;70.49;99272.45;137183;1277;22722;-80
2023/07/10 04:43:54;;;;;;;18.80;5.90;;;;;;;20.06;68.33;99269.69;137207;1277;22749;-81
2023/07/10 04:46:56;;;;;;;26.30;4.70;;;;;;;20.38;66.42;99272.94;137112;1277;22238;-81
2023/07/10 04:49:59;;;;;;;6.90;4.40;;;;;;;20.40;65.52;99266.01;137221;1277;22220;-81
2023/07/10 04:53:01;;;;;;;8.70;4.20;;;;;;;20.57;64.90;99255.58;137226;1277;22238;-81
2023/07/10 04:56:04;;;;;;;58.80;8.00;;;;;;;20.71;64.21;99253.66;137171;1277;22355;-80
2023/07/10 04:59:07;;;;;;;591.60;51.50;;;;;;;21.17;63.83;99251.72;137201;1277;22568;-80
2023/07/10 05:02:10;;;;;;;43.90;6.60;;;;;;;21.58;62.55;99248.94;137255;1277;22350;-81
2023/07/10 05:05:12;;;;;;;6.90;4.10;;;;;;;21.80;61.81;99250.15;137205;1277;22224;-81
2023/07/10 05:08:15;;;;;;;7.50;4.30;;;;;;;22.02;61.12;99257.71;137179;1277;22179;-79
2023/07/10 05:11:20;;;;;;;226.50;22.90;;;;;;;21.93;60.49;99260.60;137144;1277;22291;-78
2023/07/10 05:14:24;;;;;;;377.90;29.20;;;;;;;22.16;61.16;99254.99;137139;1277;22181;-79
2023/07/10 05:17:26;;;;;;;197.80;18.90;;;;;;;22.54;60.59;99253.39;137118;1277;23035;-80
2023/07/10 05:20:29;;;;;;;126.80;12.00;;;;;;;22.99;59.40;99255.77;137144;1277;22164;-80
2023/07/10 05:23:31;;;;;;;82.40;9.00;;;;;;;23.29;59.28;99255.47;137150;1270;22262;-79
2023/07/10 05:26:34;;;;;;;69.40;8.50;;;;;;;23.69;58.58;99251.86;137161;1277;22904;-80
2023/07/10 05:29:36;;;;;;;817.00;71.00;;;;;;;23.90;56.56;99248.11;137143;1271;22350;-79
2023/07/10 05:32:39;;;;;;;120.70;11.20;;;;;;;23.51;56.15;99246.27;137176;1277;22239;-79
2023/07/10 05:35:41;;;;;;;125.10;13.70;;;;;;;23.45;56.47;99242.54;137196;1277;22246;-79
2023/07/10 05:38:47;;;;;;;133.30;13.90;;;;;;;23.52;56.34;99238.05;137139;1277;22622;-81
2023/07/10 05:41:50;;;;;;;38.50;6.50;;;;;;;23.51;56.46;99238.08;136984;1277;22264;-80
2023/07/10 05:44:52;;;;;;;190.50;18.20;;;;;;;23.48;56.30;99244.02;136895;1277;22762;-80
2023/07/10 05:48:01;;;;;;;53.90;7.50;;;;;;;23.69;55.46;99233.76;137240;1277;22156;-80
2023/07/10 05:51:04;;;;;;;29.30;5.80;;;;;;;23.80;54.03;99236.21;137173;1277;22289;-80
2023/07/10 05:54:06;;;;;;;94.00;9.20;;;;;;;23.85;53.65;99242.05;136891;1277;22235;-79
2023/07/10 05:57:09;;;;;;;13.10;4.30;;;;;;;23.99;52.89;99242.43;137212;1269;22650;-79
2023/07/10 06:00:11;;;;;;;24.90;5.50;;;;;;;24.15;51.72;99240.08;137175;1277;22170;-79
2023/07/10 06:03:20;;;;;;;13.30;4.00;;;;;;;24.08;51.53;99247.27;137168;1277;22234;-79
2023/07/10 06:06:23;;;;;;;13.40;4.40;;;;;;;24.13;51.67;99247.60;137163;1277;22777;-79
2023/07/10 06:09:26;;;;;;;9.60;4.20;;;;;;;24.30;51.75;99252.02;137170;1277;22250;-79
2023/07/10 06:12:28;;;;;;;14.10;4.40;;;;;;;24.49;51.13;99250.06;137187;1277;22318;-79
2023/07/10 06:15:31;;;;;;;10.20;3.70;;;;;;;24.83;51.07;99252.84;137145;1270;22264;-79
2023/07/10 06:18:36;;;;;;;67.50;7.70;;;;;;;25.17;48.71;99250.09;137223;1277;22449;-79
2023/07/10 06:21:38;;;;;;;429.30;32.70;;;;;;;25.26;49.28;99249.36;137180;1271;22337;-78
2023/07/10 06:24:41;;;;;;;97.90;10.00;;;;;;;25.50;48.81;99250.47;137163;1277;22172;-80
2023/07/10 06:27:43;;;;;;;276.30;23.50;;;;;;;25.57;47.43;99251.44;137205;1277;22329;-80
2023/07/10 06:30:46;;;;;;;43.60;6.80;;;;;;;25.85;48.85;99251.33;137180;1271;22237;-80
2023/07/10 06:33:48;;;;;;;6.50;3.70;;;;;;;26.42;47.53;99248.41;137205;1277;22832;-79
2023/07/10 06:36:51;;;;;;;19.10;4.00;;;;;;;26.78;46.40;99243.51;137213;1277;22312;-80
2023/07/10 06:39:53;;;;;;;19.30;5.90;;;;;;;27.14;45.20;99246.27;137208;1277;22232;-80
2023/07/10 06:42:56;;;;;;;38.20;6.90;;;;;;;27.15;43.73;99248.57;137184;1270;22244;-82
2023/07/10 06:45:58;;;;;;;11.80;7.00;;;;;;;27.33;43.13;99249.82;137204;1277;22260;-79
2023/07/10 06:49:01;;;;;;;14.40;6.00;;;;;;;27.35;42.33;99244.54;137185;1277;22211;-80
2023/07/10 06:52:03;;;;;;;35.10;8.30;;;;;;;27.06;42.13;99242.39;137242;1277;22181;-80
2023/07/10 06:55:06;;;;;;;19.00;8.10;;;;;;;26.75;42.42;99232.60;137210;1277;21916;-80
2023/07/10 06:58:08;;;;;;;22.30;8.10;;;;;;;26.64;42.85;99228.84;137076;1277;22197;-80
2023/07/10 07:01:11;;;;;;;47.90;10.80;;;;;;;26.66;42.59;99228.71;137165;1277;22162;-79
2023/07/10 07:04:13;;;;;;;33.10;10.00;;;;;;;26.75;42.01;99229.91;137194;1277;22222;-80
2023/07/10 07:07:16;;;;;;;1159.90;131.70;;;;;;;26.77;41.95;99222.30;137208;1277;22192;-78
2023/07/10 07:10:18;;;;;;;18.70;8.00;;;;;;;26.97;41.79;99222.65;137200;1277;22232;-79
2023/07/10 07:13:21;;;;;;;181.10;20.60;;;;;;;27.18;41.75;99216.06;137202;1277;22305;-80
2023/07/10 07:16:23;;;;;;;167.30;19.80;;;;;;;27.59;42.31;99208.44;137176;1277;22146;-80
2023/07/10 07:19:26;;;;;;;33.10;6.60;;;;;;;28.11;41.29;99204.15;137209;1277;22204;-80
2023/07/10 07:22:28;;;;;;;5.80;3.50;;;;;;;28.40;39.59;99196.50;137192;1277;22254;-81
2023/07/10 07:25:31;;;;;;;22.90;5.30;;;;;;;28.43;38.00;99193.80;137197;1277;22222;-81
2023/07/10 07:28:33;;;;;;;85.40;11.10;;;;;;;28.56;38.80;99195.23;137197;1277;22258;-80
2023/07/10 07:31:36;;;;;;;157.80;15.00;;;;;;;28.86;38.93;99190.52;137233;1277;22146;-81
2023/07/10 07:34:38;;;;;;;37.70;6.40;;;;;;;29.08;38.23;99189.61;137198;1269;22192;-80
2023/07/10 07:37:41;;;;;;;170.80;14.90;;;;;;;29.42;38.23;99185.52;137217;1277;21952;-80
2023/07/10 07:40:43;;;;;;;828.00;73.10;;;;;;;29.71;36.86;99188.05;137140;1263;22221;-79
2023/07/10 07:43:46;;;;;;;106.30;10.50;;;;;;;29.91;36.41;99192.92;137123;1277;22219;-79
2023/07/10 07:46:48;;;;;;;37.90;5.40;;;;;;;29.94;36.00;99199.36;137078;1277;22032;-80
2023/07/10 07:49:51;;;;;;;91.00;10.80;;;;;;;30.00;35.65;99198.27;137200;1277;22250;-80
2023/07/10 07:52:54;;;;;;;19.40;4.10;;;;;;;30.11;35.95;99194.90;137178;1277;22619;-80
2023/07/10 07:55:56;;;;;;;4.70;2.50;;;;;;;30.41;35.05;99193.96;137170;1277;22222;-80
2023/07/10 07:58:59;;;;;;;304.60;26.60;;;;;;;30.56;32.32;99198.92;137145;1277;22795;-80
2023/07/10 08:02:01;;;;;;;35.30;4.60;;;;;;;30.71;32.37;99196.92;137150;1277;22576;-83
2023/07/10 08:05:06;;;;;;;6.40;2.60;;;;;;;30.60;30.70;99199.58;137179;1273;22282;-81
2023/07/10 08:08:09;;;;;;;256.80;22.10;;;;;;;30.18;30.40;99199.31;137240;1277;22587;-80
2023/07/10 08:11:11;;;;;;;12.80;3.40;;;;;;;30.24;31.47;99194.30;137065;1277;22203;-79
2023/07/10 08:14:14;;;;;;;3.20;2.50;;;;;;;30.78;30.38;99198.91;137186;1275;22603;-80
2023/07/10 08:17:16;;;;;;;4.20;2.20;;;;;;;30.89;29.49;99200.58;137191;1277;22871;-80
2023/07/10 08:20:21;;;;;;;2.00;1.90;;;;;;;30.91;29.21;99197.37;137170;1277;22729;-80
2023/07/10 08:23:24;;;;;;;3.60;1.90;;;;;;;30.78;28.65;99194.14;137150;1277;22738;-81
2023/07/10 08:26:26;;;;;;;19.80;4.10;;;;;;;30.64;29.03;99190.55;137183;1277;22214;-80
2023/07/10 08:29:29;;;;;;;55.90;7.60;;;;;;;30.97;30.16;99186.73;137164;1277;22065;-80
2023/07/10 08:32:31;;;;;;;4.50;2.90;;;;;;;31.28;29.04;99188.14;137169;1277;22135;-80
2023/07/10 08:35:34;;;;;;;8.70;2.20;;;;;;;31.33;28.86;99185.60;137183;1277;22781;-81
2023/07/10 08:38:36;;;;;;;4.60;1.80;;;;;;;31.32;27.05;99187.29;137233;1277;22230;-81
2023/07/10 08:41:39;;;;;;;;;;;;;;;31.12;28.34;99191.14;137191;1277;22350;-81
2023/07/10 08:44:42;;;;;;;5.80;2.20;;;;;;;31.16;28.82;99195.39;137146;1277;22893;-81
2023/07/10 08:47:44;;;;;;;333.50;23.40;;;;;;;31.14;28.83;99194.42;137165;1277;22227;-81
2023/07/10 08:50:47;;;;;;;14.80;3.50;;;;;;;30.91;29.61;99189.08;137079;1277;22216;-80
2023/07/10 08:53:49;;;;;;;3.40;2.20;;;;;;;30.82;29.26;99185.77;137097;1277;22186;-81
2023/07/10 08:56:52;;;;;;;2.70;1.80;;;;;;;30.87;28.82;99186.64;137127;1277;22176;-80
2023/07/10 08:59:54;;;;;;;;;;;;;;;30.63;27.63;99182.82;137121;1277;22426;-81
2023/07/10 09:02:57;;;;;;;2.60;2.40;;;;;;;30.42;27.95;99180.05;137080;1277;22190;-81
2023/07/10 09:06:00;;;;;;;93.30;8.30;;;;;;;30.27;28.16;99177.19;137184;1277;22239;-80
2023/07/10 09:09:02;;;;;;;2.90;2.10;;;;;;;30.42;28.05;99172.87;137155;1277;22220;-81
2023/07/10 09:12:05;;;;;;;;;;;;;;;31.04;29.25;99168.48;137162;1277;22954;-80
2023/07/10 09:15:07;;;;;;;8.00;2.60;;;;;;;31.43;27.41;99167.68;137167;1277;22228;-81
2023/07/10 09:18:10;;;;;;;6.70;2.10;;;;;;;31.60;27.09;99165.23;137198;1277;22680;-81
2023/07/10 09:21:12;;;;;;;6.10;2.00;;;;;;;31.82;26.22;99166.08;137116;1277;22252;-81
2023/07/10 09:24:15;;;;;;;2.30;2.10;;;;;;;32.20;25.96;99164.80;137138;1277;22212;-81
2023/07/10 09:27:17;;;;;;;3.30;1.90;;;;;;;32.55;25.12;99167.52;137117;1277;22504;-81
2023/07/10 09:30:20;;;;;;;2.30;1.90;;;;;;;32.25;25.16;99165.59;137138;1277;22215;-82
2023/07/10 09:33:22;;;;;;;;;;;;;;;32.13;25.24;99164.63;137148;1277;22430;-82
2023/07/10 09:36:25;;;;;;;5.90;2.30;;;;;;;32.26;24.86;99168.58;137126;1277;22188;-82
2023/07/10 09:39:27;;;;;;;2.20;2.00;;;;;;;32.65;24.75;99165.52;137148;1277;22630;-81
2023/07/10 09:42:30;;;;;;;;;;;;;;;32.93;24.77;99161.88;137167;1277;22886;-83
2023/07/10 09:45:32;;;;;;;1.90;1.70;;;;;;;32.94;24.83;99165.02;137119;1277;22471;-80
2023/07/10 09:48:35;;;;;;;2.40;2.20;;;;;;;33.01;24.69;99170.63;137118;1277;22149;-82
2023/07/10 09:51:37;;;;;;;3.30;1.80;;;;;;;32.88;24.98;99171.56;137156;1277;22247;-82
2023/07/10 09:54:40;;;;;;;1.60;1.50;;;;;;;32.91;24.27;99164.84;137202;1277;22312;-81
2023/07/10 09:57:43;;;;;;;1.70;1.60;;;;;;;33.05;24.70;99160.77;137150;1277;22360;-81
2023/07/10 10:00:46;;;;;;;2.00;1.90;;;;;;;33.08;23.95;99163.97;137081;1277;22226;-81
2023/07/10 10:03:50;;;;;;;1.80;1.70;;;;;;;32.94;23.83;99165.05;137118;1277;22275;-82
2023/07/10 10:06:53;;;;;;;21.10;2.90;;;;;;;32.81;23.94;99157.16;137163;1277;22238;-81
2023/07/10 10:09:55;;;;;;;2.10;1.80;;;;;;;32.77;24.25;99157.59;137145;1265;22239;-81
2023/07/10 10:13:00;;;;;;;4.20;2.20;;;;;;;32.59;24.06;99161.98;137112;1277;22207;-81
2023/07/10 10:16:05;;;;;;;7.00;1.90;;;;;;;32.55;24.56;99163.75;137121;1277;22108;-81
2023/07/10 10:19:08;;;;;;;10.80;2.50;;;;;;;32.67;24.77;99161.77;137133;1277;22724;-82
2023/07/10 10:22:11;;;;;;;3.00;1.70;;;;;;;32.82;24.95;99155.11;137043;1277;22247;-82
2023/07/10 10:25:16;;;;;;;2.40;1.90;;;;;;;33.04;24.44;99152.96;137025;1273;22849;-82
2023/07/10 10:28:19;;;;;;;1.90;1.80;;;;;;;32.83;23.89;99152.00;137123;1277;22601;-86
2023/07/10 10:31:21;;;;;;;1.80;1.70;;;;;;;32.58;24.54;99148.01;137131;1277;22231;-83
2023/07/10 10:34:24;;;;;;;1.80;1.70;;;;;;;32.51;24.56;99152.55;137090;1277;22462;-83
2023/07/10 10:37:26;;;;;;;1.80;1.70;;;;;;;32.48;24.27;99149.14;137049;1262;22333;-81
2023/07/10 10:40:29;;;;;;;15.80;2.50;;;;;;;32.36;24.68;99149.49;137062;1277;22253;-81
2023/07/10 10:44:07;;;;;;;2.60;1.90;;;;;;;32.51;24.70;99145.98;132470;1314;545008;-80
2023/07/10 10:47:09;;;;;;;2.90;2.00;;;;;;;32.48;24.98;99140.64;136500;1283;22233;-82
2023/07/10 10:50:10;;;;;;;5.80;1.90;;;;;;;32.46;24.81;99137.53;136476;1283;22113;-81
2023/07/10 10:53:11;;;;;;;2.00;1.90;;;;;;;32.33;24.56;99135.08;136496;1283;22295;-81
2023/07/10 10:56:12;;;;;;;3.00;2.10;;;;;;;32.02;24.90;99134.20;136358;1281;230018;-81
2023/07/10 10:59:14;;;;;;;2.40;1.80;;;;;;;31.79;25.10;99131.52;136714;1281;22094;-81
2023/07/10 11:02:15;;;;;;;3.50;2.10;;;;;;;31.62;25.44;99129.79;136689;1281;22370;-82
2023/07/10 11:05:16;;;;;;;7.40;2.30;;;;;;;31.72;25.53;99124.33;136687;1281;22736;-80
2023/07/10 11:08:17;;;;;;;2.10;1.70;;;;;;;31.92;25.46;99118.73;137326;1274;23020;-80
2023/07/10 11:11:19;;;;;;;27.20;3.90;;;;;;;32.15;25.29;99121.23;137301;1274;23057;-81
2023/07/10 11:14:20;;;;;;;4.10;2.30;;;;;;;32.21;25.37;99115.23;137307;1275;22199;-82
2023/07/10 11:17:21;;;;;;;2.40;2.10;;;;;;;32.41;25.06;99115.46;137172;1274;22413;-81
2023/07/10 11:20:22;;;;;;;2.20;2.00;;;;;;;32.49;24.83;99113.20;137323;1274;22286;-81
2023/07/10 11:23:25;;;;;;;2.10;2.00;;;;;;;32.48;24.89;99110.02;137248;1275;22451;-81
2023/07/10 11:26:44;;;;;;;2.00;1.90;;;;;;;32.12;24.91;99106.13;132998;1301;545345;-81
2023/07/10 11:29:47;;;;;;;6.10;2.50;;;;;;;31.87;25.49;99098.73;136160;1290;22948;-81
2023/07/10 11:32:49;;;;;;;9.80;2.40;;;;;;;32.01;26.17;99090.93;136114;1290;22171;-80
2023/07/10 11:35:52;;;;;;;2.30;1.90;;;;;;;32.13;26.24;99085.92;136115;1290;22229;-81
2023/07/10 11:38:54;;;;;;;118.30;9.00;;;;;;;32.22;26.65;99086.20;135951;1288;310983;-81
2023/07/10 11:41:57;;;;;;;10.20;2.50;;;;;;;32.31;26.99;99083.05;136302;1288;22126;-81
2023/07/10 11:45:00;;;;;;;24.30;3.70;;;;;;;32.34;26.71;99075.64;136353;1288;22228;-81
2023/07/10 11:48:03;;;;;;;548.20;51.30;;;;;;;32.44;26.83;99076.83;136628;1279;22238;-85
2023/07/10 11:51:05;;;;;;;3.30;2.30;;;;;;;32.30;26.07;99074.10;137032;1279;22099;-82
2023/07/10 11:54:08;;;;;;;836.20;97.70;;;;;;;32.07;27.09;99070.88;136831;1279;22212;-81
2023/07/10 11:57:11;;;;;;;30.80;6.20;;;;;;;32.08;27.67;99073.86;136863;1279;23147;-81
2023/07/10 12:00:15;;;;;;;6.40;2.80;;;;;;;32.00;27.11;99064.73;136885;1276;22162;-82
2023/07/10 12:03:18;;;;;;;26.50;4.60;;;;;;;31.96;26.97;99059.40;136821;1279;22266;-82
2023/07/10 12:06:21;;;;;;;5.40;2.30;;;;;;;32.11;27.13;99051.53;136899;1279;22254;-80
2023/07/10 12:09:24;;;;;;;3.90;2.80;;;;;;;32.22;26.75;99043.11;136932;1279;22557;-82
2023/07/10 12:12:26;;;;;;;16.40;3.10;;;;;;;32.24;27.10;99031.31;136898;1279;22235;-82
2023/07/10 12:15:29;;;;;;;;;;;;;;;32.29;27.22;99021.63;136877;1279;22354;-82
2023/07/10 12:18:31;;;;;;;6.80;2.10;;;;;;;32.42;27.64;99021.92;136871;1279;22639;-81
2023/07/10 12:21:36;;;;;;;3.20;2.10;;;;;;;32.60;27.37;99018.35;136803;1279;22211;-82
2023/07/10 12:24:39;;;;;;;4.50;2.60;;;;;;;32.89;27.11;99016.02;136830;1273;22236;-83
2023/07/10 12:27:41;;;;;;;4.10;2.30;;;;;;;33.31;26.74;99017.80;136769;1263;22241;-82
2023/07/10 12:30:44;;;;;;;3.50;2.10;;;;;;;33.67;25.86;99023.77;136784;1279;22323;-81
2023/07/10 12:33:46;;;;;;;6.00;2.30;;;;;;;33.94;25.28;99020.55;136789;1279;22246;-86
2023/07/10 13:07:53;;;;;;;2.40;2.20;;;;;;;33.26;25.90;98988.71;132971;1312;545002;-82
2023/07/10 13:10:55;;;;;;;2.70;2.10;;;;;;;33.27;26.03;98982.23;135964;1287;23035;-82
2023/07/10 13:13:58;;;;;;;5.00;2.20;;;;;;;33.12;26.15;98985.52;136280;1287;22117;-81
2023/07/10 13:17:00;;;;;;;4.20;2.50;;;;;;;33.01;25.72;98981.16;136972;1278;22532;-81
2023/07/10 13:20:03;;;;;;;5.50;2.30;;;;;;;32.94;24.42;98975.23;136787;1276;263768;-81
2023/07/10 13:23:06;;;;;;;3.20;2.40;;;;;;;32.92;24.28;98974.44;137314;1273;22505;-81
2023/07/10 13:26:08;;;;;;;4.90;2.80;;;;;;;32.87;24.63;98970.52;137301;1273;22186;-73
2023/07/10 13:29:11;;;;;;;11.60;3.00;;;;;;;32.95;24.34;98968.63;137275;1273;22835;-73
2023/07/10 13:32:13;;;;;;;5.20;2.40;;;;;;;33.12;24.12;98959.42;137324;1273;22170;-79
2023/07/10 13:35:16;;;;;;;;;;;;;;;33.12;24.10;98956.48;137273;1273;22476;-81
2023/07/10 13:38:18;;;;;;;7.00;2.80;;;;;;;33.01;24.27;98958.10;137416;1273;22178;-80
2023/07/10 13:41:21;;;;;;;13.20;3.30;;;;;;;32.86;24.49;98961.95;137181;1273;22535;-79
2023/07/10 13:44:23;;;;;;;;;;;;;;;32.77;25.19;98957.98;137332;1273;22472;-80
2023/07/10 13:47:26;;;;;;;105.60;13.90;;;;;;;32.66;25.31;98949.59;137259;1265;22411;-81
2023/07/10 13:50:28;;;;;;;5.20;2.50;;;;;;;32.59;25.22;98954.45;137057;1273;22561;-78
2023/07/10 13:53:31;;;;;;;2.70;2.40;;;;;;;32.72;25.28;98955.60;137324;1273;22302;-81
2023/07/10 13:56:35;;;;;;;5.20;3.00;;;;;;;32.65;25.65;98955.11;137206;1273;22426;-78
2023/07/10 13:59:38;;;;;;;8.80;3.30;;;;;;;32.50;26.07;98959.27;137248;1273;22438;-78
2023/07/10 14:02:43;;;;;;;33.40;4.60;;;;;;;32.40;27.37;98953.40;137403;1273;22156;-78
2023/07/10 14:05:45;;;;;;;8.30;2.50;;;;;;;32.35;27.48;98944.07;137260;1273;22421;-79
2023/07/10 14:08:48;;;;;;;4.20;2.90;;;;;;;32.33;27.04;98938.17;137366;1271;22232;-79
2023/07/10 14:11:51;;;;;;;2.50;2.30;;;;;;;32.35;25.76;98935.77;137317;1275;22355;-78
2023/07/10 14:14:53;;;;;;;2.30;2.10;;;;;;;32.38;25.07;98937.59;137334;1274;22234;-79
2023/07/10 14:17:55;;;;;;;2.70;2.50;;;;;;;32.53;24.94;98941.80;137314;1274;22999;-80
2023/07/10 14:20:58;;;;;;;2.50;2.30;;;;;;;32.37;24.88;98939.39;137324;1274;22181;-80
2023/07/10 14:24:00;;;;;;;10.40;2.90;;;;;;;32.26;25.53;98935.56;137286;1274;22972;-80
2023/07/10 14:27:03;;;;;;;4.50;2.50;;;;;;;32.26;26.20;98936.08;137313;1275;22233;-81
2023/07/10 14:30:05;;;;;;;1999.90;258.30;;;;;;;32.20;26.11;98930.41;137299;1274;22249;-78
2023/07/10 14:33:08;;;;;;;30.00;5.00;;;;;;;32.09;26.08;98924.38;137303;1267;22219;-81
2023/07/10 14:36:10;;;;;;;3.00;2.20;;;;;;;32.02;26.68;98924.55;137334;1275;22583;-85